createdAt,value
2019-05-20T00:03:17.856Z,10.95
2019-05-20T00:06:47.995Z,9.55
2019-05-20T00:10:18.144Z,11.07
2019-05-20T00:13:48.173Z,10.09
2019-05-20T00:17:18.309Z,10.59
2019-05-20T00:20:48.314Z,10.46
2019-05-20T00:24:18.381Z,9.24
2019-05-20T00:27:48.519Z,10.74
2019-05-20T00:31:18.564Z,10.15
2019-05-20T00:34:48.733Z,8.64
2019-05-20T00:38:18.826Z,8.57
2019-05-20T00:41:48.995Z,8.2
2019-05-20T00:45:19.234Z,8.02
2019-05-20T00:48:49.219Z,9.14
2019-05-20T00:52:19.318Z,5.21
2019-05-20T00:55:49.457Z,10.85
2019-05-20T00:59:19.730Z,7.56
2019-05-20T01:00:15.445Z,8.75
2019-05-20T01:03:45.445Z,8.24
2019-05-20T01:07:15.607Z,7.95
2019-05-20T01:10:45.772Z,8.68
2019-05-20T01:14:15.905Z,11.43
2019-05-20T01:17:45.985Z,8.79
2019-05-20T01:21:16.142Z,7.66
2019-05-20T01:24:46.259Z,9.94
2019-05-20T01:28:16.337Z,8.51
2019-05-20T01:31:46.450Z,8.55
2019-05-20T01:35:16.651Z,7.64
2019-05-20T01:38:46.617Z,8.26
2019-05-20T01:42:16.617Z,9.04
2019-05-20T01:45:46.747Z,8.62
2019-05-20T01:49:16.802Z,8.95
2019-05-20T01:52:46.830Z,13.98
2019-05-20T01:56:16.962Z,9.12
2019-05-20T01:59:47.034Z,8.69
2019-05-20T02:03:30.356Z,8.56
2019-05-20T02:07:02.156Z,8.14
2019-05-20T02:10:32.285Z,8.16
2019-05-20T02:14:06.743Z,9.25
2019-05-20T02:17:36.897Z,7.15
2019-05-20T02:21:06.907Z,18.11
2019-05-20T02:24:37.001Z,7.82
2019-05-20T02:28:07.042Z,7.31
2019-05-20T02:31:37.142Z,7.71
2019-05-20T02:35:07.339Z,8.12
2019-05-20T02:38:37.440Z,8.35
2019-05-20T02:42:07.708Z,11.74
2019-05-20T02:45:37.755Z,7.7
2019-05-20T02:49:07.827Z,11.7
2019-05-20T02:52:37.887Z,8.1
2019-05-20T02:56:07.965Z,8.09
2019-05-20T02:59:38.226Z,7.42
2019-05-20T03:00:14.644Z,8
2019-05-20T03:03:44.669Z,7.56
2019-05-20T03:07:14.780Z,7.96
2019-05-20T03:10:44.971Z,8.1
2019-05-20T03:14:15.048Z,9.25
2019-05-20T03:17:45.195Z,10.54
2019-05-20T03:21:15.167Z,9.07
2019-05-20T03:24:45.158Z,8.71
2019-05-20T03:28:15.371Z,6.59
2019-05-20T03:31:45.342Z,7.29
2019-05-20T03:35:15.500Z,6.21
2019-05-20T03:38:45.621Z,5.64
2019-05-20T03:42:15.683Z,5.55
2019-05-20T03:45:45.710Z,6.4
2019-05-20T03:49:15.805Z,5.89
2019-05-20T03:52:45.836Z,5.38
2019-05-20T05:06:37.453Z,10.27
2019-05-20T05:10:09.149Z,9.84
2019-05-20T05:13:39.323Z,9.49
2019-05-20T05:17:09.485Z,9.68
2019-05-20T05:20:39.690Z,9.61
2019-05-20T05:24:09.962Z,9.64
2019-05-20T05:27:40.035Z,9.1
2019-05-20T05:31:10.195Z,9.71
2019-05-20T05:34:40.257Z,9.95
2019-05-20T05:38:10.362Z,10.71
2019-05-20T05:41:40.404Z,15.55
2019-05-20T05:45:10.746Z,13.86
2019-05-20T05:48:40.839Z,10.51
2019-05-20T05:52:10.892Z,9.6
2019-05-20T05:55:41.007Z,12.32
2019-05-20T05:59:11.040Z,12.19
2019-05-20T06:02:41.153Z,11.11
2019-05-20T06:06:13.084Z,7.66
2019-05-20T06:09:43.513Z,9.11
2019-05-20T06:13:13.534Z,11.21
2019-05-20T06:16:43.674Z,10.75
2019-05-20T06:20:15.530Z,16.01
2019-05-20T06:23:45.686Z,13.54
2019-05-20T06:27:15.745Z,6.4
2019-05-20T06:30:46.862Z,16.88
2019-05-20T06:34:17.070Z,6.06
2019-05-20T06:37:52.071Z,12.4
2019-05-20T06:41:22.171Z,10.03
2019-05-20T06:44:55.045Z,9.49
2019-05-20T06:48:27.346Z,11.56
2019-05-20T06:51:57.341Z,14.44
2019-05-20T06:55:27.408Z,12.45
2019-05-20T06:58:57.539Z,11.75
2019-05-20T07:00:33.375Z,14.48
2019-05-20T07:04:03.496Z,11.48
2019-05-20T07:07:33.609Z,11.9
2019-05-20T07:11:03.778Z,10.7
2019-05-20T07:14:33.947Z,14.76
2019-05-20T07:18:04.088Z,12.36
2019-05-20T07:21:34.116Z,12.53
2019-05-20T07:25:04.312Z,13.8
2019-05-20T07:28:34.402Z,11.89
2019-05-20T07:32:04.517Z,12.36
2019-05-20T07:35:34.624Z,12.46
2019-05-20T07:39:05.737Z,12.6
2019-05-20T07:42:35.873Z,11.9
2019-05-20T07:46:07.948Z,11.55
2019-05-20T07:49:38.456Z,10.12
2019-05-20T07:53:10.537Z,10.75
2019-05-20T07:56:44.413Z,10.72
2019-05-20T08:00:14.752Z,14.3
2019-05-20T08:03:44.862Z,10.57
2019-05-20T08:07:27.650Z,9.69
2019-05-20T08:11:06.294Z,9.81
2019-05-20T08:14:36.406Z,9.55
2019-05-20T08:18:06.518Z,11.9
2019-05-20T08:21:36.797Z,9.3
2019-05-20T08:25:07.459Z,10.09
2019-05-20T08:28:37.484Z,9.28
2019-05-20T08:32:07.508Z,8.96
2019-05-20T08:35:37.653Z,7.21
2019-05-20T08:39:08.221Z,7.64
2019-05-20T08:42:38.359Z,8.51
2019-05-20T08:46:08.433Z,13.04
2019-05-20T08:49:38.910Z,9.88
2019-05-20T08:53:09.349Z,8.84
2019-05-20T08:56:39.505Z,10.16
2019-05-20T09:00:23.238Z,11.51
2019-05-20T09:03:54.443Z,9.78
2019-05-20T09:07:24.585Z,11.97
2019-05-20T09:10:54.713Z,9.25
2019-05-20T09:14:25.082Z,11.53
2019-05-20T09:17:55.267Z,10.09
2019-05-20T09:21:25.285Z,11.18
2019-05-20T09:24:55.427Z,11.56
2019-05-20T09:28:25.559Z,9.56
2019-05-20T09:31:55.759Z,9.71
2019-05-20T09:35:25.898Z,8.78
2019-05-20T09:38:55.984Z,9.26
2019-05-20T09:42:26.235Z,8.81
2019-05-20T09:46:06.386Z,9.46
2019-05-20T09:49:37.978Z,9.28
2019-05-20T09:53:08.257Z,7.54
2019-05-20T09:56:38.194Z,7.46
2019-05-20T10:00:08.680Z,9.74
2019-05-20T10:03:38.758Z,9.96
2019-05-20T10:07:09.108Z,13.41
2019-05-20T10:10:39.387Z,7.22
2019-05-20T10:14:09.504Z,6.66
2019-05-20T10:17:39.646Z,10.21
2019-05-20T10:21:09.814Z,6.4
2019-05-20T10:24:39.896Z,9.85
2019-05-20T10:28:10.033Z,5.54
2019-05-20T10:31:40.091Z,7.72
2019-05-20T10:35:10.351Z,7.67
2019-05-20T10:38:56.899Z,7.19
2019-05-20T10:42:29.059Z,6.2
2019-05-20T10:45:59.164Z,6.78
2019-05-20T10:49:29.304Z,6.9
2019-05-20T10:52:59.369Z,7.4
2019-05-20T10:56:29.544Z,6.75
2019-05-20T10:59:59.657Z,6.94
2019-05-20T11:00:15.953Z,10
2019-05-20T11:03:46.163Z,6.75
2019-05-20T11:07:16.319Z,7.44
2019-05-20T11:10:46.573Z,6.42
2019-05-20T11:14:16.800Z,7.54
2019-05-20T11:17:46.920Z,15.38
2019-05-20T11:21:17.178Z,11.55
2019-05-20T11:24:47.428Z,9.71
2019-05-20T11:28:17.601Z,9.21
2019-05-20T11:31:47.809Z,9.66
2019-05-20T11:35:18.520Z,7.21
2019-05-20T11:38:48.615Z,4.66
2019-05-20T11:42:18.729Z,6.05
2019-05-20T11:45:48.945Z,8.14
2019-05-20T11:49:19.082Z,6.74
2019-05-20T11:52:49.197Z,4.76
2019-05-20T11:56:19.379Z,9.91
2019-05-20T11:59:49.507Z,5.9
2019-05-20T12:03:19.581Z,7.49
2019-05-20T12:06:49.692Z,5.53
2019-05-20T12:10:19.847Z,6.95
2019-05-20T12:13:50.037Z,7.26
2019-05-20T12:17:20.137Z,8.99
2019-05-20T12:20:50.299Z,9.23
2019-05-20T12:24:20.390Z,9.49
2019-05-20T12:27:50.572Z,9.48
2019-05-20T12:31:20.669Z,8.74
2019-05-20T12:34:50.883Z,10.25
2019-05-20T12:38:21.055Z,6.72
2019-05-20T12:41:51.094Z,8.36
2019-05-20T12:45:21.278Z,9.89
2019-05-20T12:48:51.498Z,10.33
2019-05-20T12:52:21.687Z,10.41
2019-05-20T12:55:51.845Z,7.52
2019-05-20T12:59:21.911Z,10.61
2019-05-20T13:00:17.602Z,11.85
2019-05-20T13:03:47.569Z,8.9
2019-05-20T13:07:17.765Z,12.55
2019-05-20T13:10:47.886Z,9.21
2019-05-20T13:14:17.959Z,11.41
2019-05-20T13:17:48.050Z,9.01
2019-05-20T13:21:18.078Z,9.18
2019-05-20T13:24:48.219Z,10.44
2019-05-20T13:28:18.333Z,10.55
2019-05-20T13:31:48.465Z,9.2
2019-05-20T13:35:18.532Z,9.89
2019-05-20T13:38:48.488Z,8.36
2019-05-20T13:42:28.072Z,9.69
2019-05-20T13:45:58.168Z,15.84
2019-05-20T13:49:28.381Z,8.59
2019-05-20T13:52:58.512Z,10.61
2019-05-20T13:56:28.567Z,9.54
2019-05-20T13:59:58.839Z,9.85
2019-05-20T14:03:28.897Z,8.22
2019-05-20T14:06:59.191Z,10.1
2019-05-20T14:10:29.266Z,19.45
2019-05-20T14:13:59.471Z,12.18
2019-05-20T14:17:29.925Z,14.48
2019-05-20T14:21:00.069Z,9.74
2019-05-20T14:24:30.264Z,9.73
2019-05-20T14:28:00.287Z,11.36
2019-05-20T14:31:30.397Z,15.75
2019-05-20T14:35:00.499Z,9.83
2019-05-20T14:38:30.537Z,8.01
2019-05-20T14:42:00.591Z,8.26
2019-05-20T14:45:30.737Z,8.6
2019-05-20T14:49:02.659Z,7.84
2019-05-20T14:52:33.081Z,7.19
2019-05-20T14:56:03.163Z,12.68
2019-05-20T14:59:33.161Z,9.5
2019-05-20T15:00:16.162Z,9.5
2019-05-20T15:03:46.301Z,8.72
2019-05-20T15:07:29.030Z,10.12
2019-05-20T15:11:00.547Z,8.72
2019-05-20T15:14:30.549Z,11.88
2019-05-20T15:18:00.801Z,9.04
2019-05-20T15:21:30.807Z,8.72
2019-05-20T15:25:00.902Z,7.65
2019-05-20T15:28:30.956Z,18.44
2019-05-20T15:32:01.047Z,11.14
2019-05-20T15:35:31.173Z,16.11
2019-05-20T15:39:01.289Z,12.41
2019-05-20T15:42:31.600Z,8.4
2019-05-20T15:46:01.708Z,8.16
2019-05-20T15:49:31.811Z,9.06
2019-05-20T15:53:01.984Z,10.61
2019-05-20T15:56:32.143Z,8.45
2019-05-20T16:00:03.461Z,7.36
2019-05-20T16:03:33.489Z,9.78
2019-05-20T16:07:03.881Z,7.95
2019-05-20T16:10:34.043Z,6.29
2019-05-20T16:14:04.211Z,6.71
2019-05-20T16:17:34.277Z,11.38
2019-05-20T16:21:04.415Z,11.91
2019-05-20T16:24:34.586Z,12.88
2019-05-20T16:28:04.795Z,4.51
2019-05-20T16:31:35.082Z,5.94
2019-05-20T16:35:05.957Z,5.15
2019-05-20T16:38:36.150Z,8.24
2019-05-20T16:42:06.283Z,4.35
2019-05-20T16:45:36.445Z,15.41
2019-05-20T16:49:06.584Z,5.21
2019-05-20T16:52:36.688Z,4.09
2019-05-20T16:56:06.747Z,10.06
2019-05-20T16:59:36.795Z,6.08
2019-05-20T17:00:30.796Z,7.35
2019-05-20T17:04:02.211Z,6.92
2019-05-20T17:07:32.312Z,8.98
2019-05-20T17:11:02.470Z,5
2019-05-20T17:14:32.535Z,5.61
2019-05-20T17:18:02.816Z,7.35
2019-05-20T17:21:32.875Z,8.56
2019-05-20T17:25:03.094Z,5.47
2019-05-20T17:28:33.237Z,9.66
2019-05-20T17:32:03.323Z,10.76
2019-05-20T17:35:33.453Z,5.58
2019-05-20T17:39:05.544Z,7.42
2019-05-20T17:42:35.662Z,7.04
2019-05-20T17:46:05.861Z,7.26
2019-05-20T17:49:35.978Z,9.05
2019-05-20T17:53:06.166Z,5.4
2019-05-20T17:56:36.224Z,5.7
2019-05-20T18:00:07.229Z,4.26
2019-05-20T18:03:37.349Z,16.76
2019-05-20T18:07:07.474Z,5.69
2019-05-20T18:10:37.561Z,4.51
2019-05-20T18:14:07.737Z,8.41
2019-05-20T18:17:37.850Z,6.43
2019-05-20T18:21:08.075Z,3.78
2019-05-20T18:24:38.093Z,4.24
2019-05-20T18:28:08.381Z,2.55
2019-05-20T18:31:38.518Z,6.56
2019-05-20T18:35:09.699Z,5.64
2019-05-20T18:38:39.868Z,2.35
2019-05-20T18:42:10.060Z,9.31
2019-05-20T18:45:40.196Z,6.39
2019-05-20T18:49:10.240Z,3.62
2019-05-20T18:52:40.358Z,6.96
2019-05-20T18:56:10.423Z,7.65
2019-05-20T18:59:40.543Z,2.86
2019-05-20T19:00:15.971Z,6.46
2019-05-20T19:03:46.348Z,5.66
2019-05-20T19:07:16.691Z,8.65
2019-05-20T19:10:46.827Z,2.83
2019-05-20T19:14:17.042Z,3.76
2019-05-20T19:17:47.113Z,1.52
2019-05-20T19:21:17.145Z,3.29
2019-05-20T19:24:47.202Z,3.99
2019-05-20T19:28:17.320Z,4.14
2019-05-20T19:32:00.697Z,4.49
2019-05-20T19:35:31.579Z,8.1
2019-05-20T19:39:01.656Z,5.67
2019-05-20T19:42:31.828Z,4.16
2019-05-20T19:46:01.985Z,4.38
2019-05-20T19:49:32.089Z,7.6
2019-05-20T19:53:02.290Z,8.66
2019-05-20T19:56:32.515Z,4.46
2019-05-20T20:00:03.442Z,11.55
2019-05-20T20:03:33.563Z,10.39
2019-05-20T20:07:03.701Z,4.58
2019-05-20T20:10:33.927Z,2.61
2019-05-20T20:14:04.090Z,8.01
2019-05-20T20:17:34.145Z,2.89
2019-05-20T20:21:04.144Z,2.55
2019-05-20T20:24:34.200Z,2.35
2019-05-20T20:28:04.320Z,2.76
2019-05-20T20:31:34.472Z,3.73
2019-05-20T20:35:05.152Z,4.16
2019-05-20T20:38:35.211Z,2.5
2019-05-20T20:42:05.351Z,2.02
2019-05-20T20:45:35.403Z,2.8
2019-05-20T20:49:05.585Z,4
2019-05-20T20:52:35.759Z,5.41
2019-05-20T20:56:05.893Z,2.58
2019-05-20T20:59:36.127Z,3.54
2019-05-20T21:00:16.695Z,4.05
2019-05-20T21:03:46.841Z,3.19
2019-05-20T21:07:16.979Z,2.58
2019-05-20T21:10:47.130Z,5.36
2019-05-20T21:14:17.134Z,3.97
2019-05-20T21:17:47.285Z,4.44
2019-05-20T21:21:17.360Z,5.1
2019-05-20T21:24:47.448Z,2.29
2019-05-20T21:28:17.555Z,2.99
2019-05-20T21:31:47.710Z,4.25
2019-05-20T21:35:17.765Z,4.24
2019-05-20T21:38:47.819Z,3.54
2019-05-20T21:42:17.961Z,3.07
2019-05-20T21:45:48.105Z,2.62
2019-05-20T21:49:18.192Z,3.38
2019-05-20T21:52:48.384Z,3.59
2019-05-20T21:56:18.435Z,2.95
2019-05-20T21:59:48.537Z,3.69
2019-05-20T22:03:24.452Z,3.15
2019-05-20T22:06:55.211Z,3.09
2019-05-20T22:10:25.367Z,4.72
2019-05-20T22:13:55.459Z,2.45
2019-05-20T22:17:25.627Z,3.02
2019-05-20T22:20:55.776Z,2.15
2019-05-20T22:24:25.933Z,2.35
2019-05-20T22:27:56.040Z,2.49
2019-05-20T22:31:26.228Z,2.3
2019-05-20T22:34:56.313Z,3.05
2019-05-20T22:38:26.416Z,2.84
2019-05-20T22:41:56.418Z,2.49
2019-05-20T22:45:26.531Z,2.73
2019-05-20T22:48:56.789Z,3.56
2019-05-20T22:52:26.958Z,3.2
2019-05-20T22:55:57.009Z,7.15
2019-05-20T22:59:27.067Z,4.54
2019-05-20T23:00:16.029Z,4.11
2019-05-20T23:03:56.142Z,5.17
2019-05-20T23:07:26.713Z,5.16
2019-05-20T23:10:56.793Z,3.19
2019-05-20T23:14:26.857Z,3.53
2019-05-20T23:17:56.945Z,3
2019-05-20T23:21:26.995Z,2.98
2019-05-20T23:24:57.053Z,4.72
2019-05-20T23:28:27.156Z,2.89
2019-05-20T23:31:57.122Z,4.39
2019-05-20T23:35:27.213Z,5.66
2019-05-20T23:38:57.357Z,3.17
2019-05-20T23:42:27.442Z,3.79
2019-05-20T23:45:57.450Z,4.51
2019-05-20T23:49:27.504Z,4.08
2019-05-20T23:52:57.586Z,4.06
2019-05-20T23:56:27.613Z,4.1
2019-05-20T23:59:57.658Z,5.76
